Time;durP1;ratioP1;P1;durP2;ratioP2;P2;SDS_P1;SDS_P2;PMS_P1;PMS_P2;Temp;Humidity;BMP_temperature;BMP_pressure;BME280_temperature;BME280_humidity;BME280_pressure;Samples;Min_cycle;Max_cycle;Signal;HPM_P1;HPM_P2
2023/01/08 00:01:45;;;;;;;1.60;0.67;;;;;;;;;;5047528;28;20317;-63
2023/01/08 00:04:11;;;;;;;0.20;0.20;;;;;;;;;;5049307;28;20271;-63
2023/01/08 00:06:39;;;;;;;0.57;0.57;;;;;;;;;;5047213;28;20264;-63
2023/01/08 00:09:05;;;;;;;0.57;0.57;;;;;;;;;;5049377;28;20272;-63
2023/01/08 00:11:31;;;;;;;0.40;0.40;;;;;;;;;;5046264;28;20240;-62
2023/01/08 00:13:58;;;;;;;0.20;0.20;;;;;;;;;;5050225;28;20240;-62
2023/01/08 00:16:24;;;;;;;0.20;0.20;;;;;;;;;;5045416;28;20252;-63
2023/01/08 00:18:50;;;;;;;0.20;0.20;;;;;;;;;;5051259;28;20241;-62
2023/01/08 00:21:17;;;;;;;0.20;0.20;;;;;;;;;;5044138;28;20246;-63
2023/01/08 00:23:44;;;;;;;0.20;0.20;;;;;;;;;;5052138;28;20219;-63
2023/01/08 00:26:11;;;;;;;0.20;0.20;;;;;;;;;;5043313;28;20263;-63
2023/01/08 00:28:37;;;;;;;0.10;0.10;;;;;;;;;;5052798;28;20278;-63
2023/01/08 00:31:04;;;;;;;0.53;0.53;;;;;;;;;;5042180;28;20257;-63
2023/01/08 00:33:31;;;;;;;0.20;0.20;;;;;;;;;;5053428;28;20233;-62
2023/01/08 00:35:57;;;;;;;0.80;0.80;;;;;;;;;;5041650;28;20276;-63
2023/01/08 00:38:25;;;;;;;0.20;0.20;;;;;;;;;;5054358;28;20286;-63
2023/01/08 00:40:53;;;;;;;0.10;0.10;;;;;;;;;;5040673;28;20341;-62
2023/01/08 00:43:19;;;;;;;1.60;1.50;;;;;;;;;;5054915;28;20305;-62
2023/01/08 00:45:45;;;;;;;0.10;0.10;;;;;;;;;;5038742;28;20264;-63
2023/01/08 00:48:12;;;;;;;0.10;0.10;;;;;;;;;;5055502;28;20236;-63
2023/01/08 00:50:38;;;;;;;5.63;0.97;;;;;;;;;;5038763;28;20265;-64
2023/01/08 00:53:04;;;;;;;0.20;0.20;;;;;;;;;;5056502;28;20450;-62
2023/01/08 00:55:31;;;;;;;0.10;0.10;;;;;;;;;;5037724;28;20259;-63
2023/01/08 00:57:58;;;;;;;0.10;0.10;;;;;;;;;;5057402;28;20273;-62
2023/01/08 01:00:25;;;;;;;0.10;0.10;;;;;;;;;;5036557;28;20276;-64
2023/01/08 01:02:51;;;;;;;0.10;0.10;;;;;;;;;;5058178;28;20233;-65
2023/01/08 01:05:19;;;;;;;0.10;0.10;;;;;;;;;;5036041;28;20269;-65
2023/01/08 01:07:46;;;;;;;0.63;0.63;;;;;;;;;;5058781;28;20438;-65
2023/01/08 01:10:13;;;;;;;3.43;3.13;;;;;;;;;;5035176;28;20207;-65
2023/01/08 01:12:40;;;;;;;0.20;0.20;;;;;;;;;;5059384;28;20274;-64
2023/01/08 01:15:09;;;;;;;0.10;0.10;;;;;;;;;;5044465;28;20245;-65
2023/01/08 01:17:37;;;;;;;0.10;0.10;;;;;;;;;;5033177;28;20546;-64
2023/01/08 01:20:04;;;;;;;0.20;0.20;;;;;;;;;;5044264;28;20561;-64
2023/01/08 01:22:31;;;;;;;0.10;0.10;;;;;;;;;;5049532;28;20258;-64
2023/01/08 01:24:57;;;;;;;0.10;0.10;;;;;;;;;;5044367;28;20530;-65
2023/01/08 01:27:24;;;;;;;0.10;0.10;;;;;;;;;;5049696;28;20405;-64
2023/01/08 01:29:50;;;;;;;0.10;0.10;;;;;;;;;;5044409;28;20237;-64
2023/01/08 01:32:18;;;;;;;0.10;0.10;;;;;;;;;;5049681;28;20268;-65
2023/01/08 01:34:45;;;;;;;0.10;0.10;;;;;;;;;;5044436;28;20474;-64
2023/01/08 01:37:11;;;;;;;0.13;0.13;;;;;;;;;;5049503;28;20460;-64
2023/01/08 01:39:38;;;;;;;0.20;0.20;;;;;;;;;;5043948;28;20218;-64
2023/01/08 01:42:04;;;;;;;0.20;0.20;;;;;;;;;;5048771;28;20256;-64
2023/01/08 01:44:35;;;;;;;0.30;0.30;;;;;;;;;;5044653;28;20214;-64
2023/01/08 01:47:04;;;;;;;0.10;0.10;;;;;;;;;;5048475;28;20248;-65
2023/01/08 01:49:32;;;;;;;0.10;0.10;;;;;;;;;;5044217;28;20206;-65
2023/01/08 01:52:01;;;;;;;0.10;0.10;;;;;;;;;;5048355;28;20489;-66
2023/01/08 01:54:28;;;;;;;0.10;0.10;;;;;;;;;;5044876;28;20375;-64
2023/01/08 01:56:54;;;;;;;0.10;0.10;;;;;;;;;;5047274;28;20578;-64
2023/01/08 01:59:21;;;;;;;0.20;0.20;;;;;;;;;;5045301;28;20527;-65
2023/01/08 02:01:47;;;;;;;0.20;0.20;;;;;;;;;;5046513;28;20309;-65
2023/01/08 02:04:14;;;;;;;0.10;0.10;;;;;;;;;;5046252;28;20294;-65
2023/01/08 02:06:44;;;;;;;0.30;0.30;;;;;;;;;;5045412;28;20240;-65
2023/01/08 02:09:15;;;;;;;0.17;0.17;;;;;;;;;;5046962;28;20265;-66
2023/01/08 02:11:44;;;;;;;0.10;0.10;;;;;;;;;;5045532;28;20250;-63
2023/01/08 02:14:13;;;;;;;0.13;0.13;;;;;;;;;;5046709;28;20204;-65
2023/01/08 02:16:42;;;;;;;0.30;0.30;;;;;;;;;;5045387;28;20305;-64
2023/01/08 02:19:14;;;;;;;0.20;0.20;;;;;;;;;;5047073;28;20278;-64
2023/01/08 02:21:50;;;;;;;0.10;0.10;;;;;;;;;;5045235;28;20241;-64
2023/01/08 02:24:19;;;;;;;0.17;0.17;;;;;;;;;;5045755;28;20286;-64
2023/01/08 02:26:48;;;;;;;0.20;0.20;;;;;;;;;;5045943;28;20256;-64
2023/01/08 02:29:15;;;;;;;0.10;0.10;;;;;;;;;;5046235;28;20398;-65
2023/01/08 02:31:43;;;;;;;0.30;0.30;;;;;;;;;;5045283;28;20256;-65
2023/01/08 02:34:10;;;;;;;0.10;0.10;;;;;;;;;;5046922;28;20390;-66
2023/01/08 02:36:38;;;;;;;0.20;0.20;;;;;;;;;;5044643;28;20241;-64
2023/01/08 02:39:16;;;;;;;0.20;0.20;;;;;;;;;;5047359;28;20447;-64
2023/01/08 02:42:01;;;;;;;0.10;0.10;;;;;;;;;;5045322;28;20304;-64
2023/01/08 02:44:31;;;;;;;0.17;0.17;;;;;;;;;;5044606;28;20471;-63
2023/01/08 02:46:58;;;;;;;0.10;0.10;;;;;;;;;;5047459;28;20476;-64
2023/01/08 02:49:27;;;;;;;0.10;0.10;;;;;;;;;;5044688;28;20237;-64
2023/01/08 02:51:54;;;;;;;1.27;1.27;;;;;;;;;;5046629;28;20308;-64
2023/01/08 02:54:23;;;;;;;0.10;0.10;;;;;;;;;;5045171;28;20421;-65
2023/01/08 02:56:51;;;;;;;0.20;0.20;;;;;;;;;;5046134;28;20303;-65
2023/01/08 02:59:19;;;;;;;0.17;0.17;;;;;;;;;;5045165;28;20281;-65
2023/01/08 03:01:46;;;;;;;0.77;0.77;;;;;;;;;;5045680;28;20444;-65
2023/01/08 03:04:14;;;;;;;0.20;0.20;;;;;;;;;;5045789;28;20297;-65
2023/01/08 03:06:40;;;;;;;0.20;0.20;;;;;;;;;;5044908;28;20249;-65
2023/01/08 03:09:07;;;;;;;0.10;0.10;;;;;;;;;;5048080;28;20237;-65
2023/01/08 03:11:36;;;;;;;0.10;0.10;;;;;;;;;;5047847;28;20239;-65
2023/01/08 03:14:06;;;;;;;0.20;0.20;;;;;;;;;;5050851;28;20540;-65
2023/01/08 03:16:36;;;;;;;0.10;0.10;;;;;;;;;;5047821;28;20496;-65
2023/01/08 03:19:10;;;;;;;0.10;0.10;;;;;;;;;;5051002;28;20233;-65
2023/01/08 03:21:37;;;;;;;0.10;0.10;;;;;;;;;;5047961;28;20304;-65
2023/01/08 03:24:04;;;;;;;0.10;0.10;;;;;;;;;;5050673;28;20469;-65
2023/01/08 03:26:32;;;;;;;0.10;0.10;;;;;;;;;;5047040;28;20309;-65
2023/01/08 03:28:59;;;;;;;0.13;0.13;;;;;;;;;;5051249;28;20468;-65
2023/01/08 03:31:27;;;;;;;0.73;0.73;;;;;;;;;;5046221;28;20309;-65
2023/01/08 03:33:56;;;;;;;0.43;0.43;;;;;;;;;;5051931;28;20420;-65
2023/01/08 03:36:24;;;;;;;3.70;3.30;;;;;;;;;;5045926;28;20241;-64
2023/01/08 03:38:53;;;;;;;0.10;0.10;;;;;;;;;;5052030;28;20580;-65
2023/01/08 03:41:21;;;;;;;0.20;0.20;;;;;;;;;;5045540;28;20266;-64
2023/01/08 03:43:48;;;;;;;0.20;0.20;;;;;;;;;;5052341;28;20232;-64
2023/01/08 03:46:16;;;;;;;0.10;0.10;;;;;;;;;;5044530;28;20307;-64
2023/01/08 03:48:42;;;;;;;0.10;0.10;;;;;;;;;;5052997;28;20236;-63
2023/01/08 03:51:10;;;;;;;0.17;0.17;;;;;;;;;;5043788;28;20241;-65
2023/01/08 03:53:37;;;;;;;0.20;0.20;;;;;;;;;;5053368;28;20234;-65
2023/01/08 03:56:03;;;;;;;0.10;0.10;;;;;;;;;;5043104;28;20266;-64
2023/01/08 03:58:30;;;;;;;0.10;0.10;;;;;;;;;;5054045;28;20204;-64
2023/01/08 04:00:56;;;;;;;0.17;0.17;;;;;;;;;;5041979;28;20241;-65
2023/01/08 04:03:23;;;;;;;0.10;0.10;;;;;;;;;;5055135;28;20229;-64
2023/01/08 04:05:49;;;;;;;0.10;0.10;;;;;;;;;;5041299;28;20250;-65
2023/01/08 04:08:17;;;;;;;0.23;0.23;;;;;;;;;;5055924;28;20238;-64
2023/01/08 04:10:43;;;;;;;0.20;0.20;;;;;;;;;;5040212;28;20307;-64
2023/01/08 04:13:10;;;;;;;0.10;0.10;;;;;;;;;;5056542;28;20245;-65
2023/01/08 04:15:36;;;;;;;0.50;0.50;;;;;;;;;;5039190;28;20312;-64
2023/01/08 04:18:03;;;;;;;0.13;0.13;;;;;;;;;;5057267;28;20505;-64
2023/01/08 04:20:29;;;;;;;0.10;0.10;;;;;;;;;;5038072;28;20292;-65
2023/01/08 04:22:55;;;;;;;0.20;0.20;;;;;;;;;;5058056;28;20293;-64
2023/01/08 04:25:23;;;;;;;0.13;0.13;;;;;;;;;;5037337;28;20243;-64
2023/01/08 04:27:49;;;;;;;0.10;0.10;;;;;;;;;;5059188;28;20282;-65
2023/01/08 04:30:16;;;;;;;0.10;0.10;;;;;;;;;;5036080;28;20226;-65
2023/01/08 04:32:42;;;;;;;0.47;0.47;;;;;;;;;;5059989;28;20232;-64
2023/01/08 04:35:09;;;;;;;0.10;0.10;;;;;;;;;;5036323;28;20547;-64
2023/01/08 04:37:35;;;;;;;0.20;0.20;;;;;;;;;;5060476;28;20243;-64
2023/01/08 04:40:02;;;;;;;0.10;0.10;;;;;;;;;;5045426;28;20464;-64
2023/01/08 04:42:29;;;;;;;0.20;0.20;;;;;;;;;;5050639;28;20247;-65
2023/01/08 04:44:56;;;;;;;0.10;0.10;;;;;;;;;;5045098;28;20294;-64
2023/01/08 04:47:22;;;;;;;0.20;0.20;;;;;;;;;;5050589;28;20263;-64
2023/01/08 04:49:48;;;;;;;0.10;0.10;;;;;;;;;;5044988;28;20245;-65
2023/01/08 04:52:15;;;;;;;0.13;0.13;;;;;;;;;;5050450;28;20262;-64
2023/01/08 04:54:41;;;;;;;0.10;0.10;;;;;;;;;;5045278;28;20231;-64
2023/01/08 04:57:08;;;;;;;0.10;0.10;;;;;;;;;;5050152;28;20578;-64
2023/01/08 04:59:36;;;;;;;0.10;0.10;;;;;;;;;;5044734;28;20239;-64
2023/01/08 05:02:02;;;;;;;0.20;0.20;;;;;;;;;;5048994;28;20305;-63
2023/01/08 05:04:28;;;;;;;0.37;0.37;;;;;;;;;;5045521;28;20561;-64
2023/01/08 05:06:55;;;;;;;0.40;0.40;;;;;;;;;;5048229;28;20247;-64
2023/01/08 05:09:21;;;;;;;0.10;0.10;;;;;;;;;;5046324;28;20250;-64
2023/01/08 05:11:47;;;;;;;0.30;0.30;;;;;;;;;;5047180;28;20251;-64
2023/01/08 05:14:14;;;;;;;0.10;0.10;;;;;;;;;;5047114;28;20235;-64
2023/01/08 05:16:42;;;;;;;0.20;0.20;;;;;;;;;;5046327;28;20247;-64
2023/01/08 05:19:08;;;;;;;0.13;0.13;;;;;;;;;;5048047;28;20207;-66
2023/01/08 05:21:34;;;;;;;0.17;0.17;;;;;;;;;;5045479;28;20268;-64
2023/01/08 05:24:01;;;;;;;0.20;0.20;;;;;;;;;;5048725;28;20219;-64
2023/01/08 05:26:27;;;;;;;0.20;0.20;;;;;;;;;;5044503;28;20268;-64
2023/01/08 05:28:53;;;;;;;0.20;0.20;;;;;;;;;;5049702;28;20457;-66
2023/01/08 05:31:20;;;;;;;0.10;0.10;;;;;;;;;;5042890;28;20255;-64
2023/01/08 05:33:47;;;;;;;0.10;0.10;;;;;;;;;;5050181;28;20241;-64
2023/01/08 05:36:14;;;;;;;0.10;0.10;;;;;;;;;;5042537;28;20318;-64
2023/01/08 05:38:40;;;;;;;0.13;0.13;;;;;;;;;;5050895;28;20236;-64
2023/01/08 05:41:07;;;;;;;0.10;0.10;;;;;;;;;;5041520;28;20321;-64
2023/01/08 05:43:33;;;;;;;0.10;0.10;;;;;;;;;;5051951;28;20560;-64
2023/01/08 05:46:00;;;;;;;0.10;0.10;;;;;;;;;;5040643;28;20321;-65
2023/01/08 05:48:27;;;;;;;0.10;0.10;;;;;;;;;;5052843;28;20327;-64
2023/01/08 05:50:54;;;;;;;0.10;0.10;;;;;;;;;;5039626;28;20248;-65
2023/01/08 05:53:21;;;;;;;0.20;0.20;;;;;;;;;;5053446;28;20209;-65
2023/01/08 05:55:48;;;;;;;0.30;0.30;;;;;;;;;;5038988;28;20493;-64
2023/01/08 05:58:17;;;;;;;0.30;0.30;;;;;;;;;;5054094;28;20553;-65
2023/01/08 06:00:44;;;;;;;0.10;0.10;;;;;;;;;;5037997;28;20249;-65
2023/01/08 06:03:10;;;;;;;0.30;0.30;;;;;;;;;;5055130;28;20207;-65
2023/01/08 06:05:36;;;;;;;0.10;0.10;;;;;;;;;;5037156;28;20255;-65
2023/01/08 06:08:05;;;;;;;0.10;0.10;;;;;;;;;;5055519;28;20233;-64
2023/01/08 06:10:31;;;;;;;0.10;0.10;;;;;;;;;;5036492;28;20258;-64
2023/01/08 06:12:57;;;;;;;0.10;0.10;;;;;;;;;;5056094;28;20247;-64
2023/01/08 06:15:24;;;;;;;0.13;0.13;;;;;;;;;;5035468;28;20239;-64
2023/01/08 06:17:50;;;;;;;0.10;0.10;;;;;;;;;;5057047;28;20278;-64
2023/01/08 06:20:16;;;;;;;0.10;0.10;;;;;;;;;;5034730;28;20455;-63
2023/01/08 06:22:43;;;;;;;0.10;0.10;;;;;;;;;;5057746;28;20219;-64
2023/01/08 06:25:10;;;;;;;0.13;0.13;;;;;;;;;;5033800;28;20258;-66
2023/01/08 06:27:37;;;;;;;0.90;0.90;;;;;;;;;;5058682;28;20234;-65
2023/01/08 06:30:04;;;;;;;0.10;0.10;;;;;;;;;;5043689;28;20281;-65
2023/01/08 06:32:30;;;;;;;0.10;0.10;;;;;;;;;;5048888;28;20313;-65
2023/01/08 06:34:56;;;;;;;0.20;0.20;;;;;;;;;;5043443;28;20228;-64
2023/01/08 06:37:23;;;;;;;0.50;0.50;;;;;;;;;;5048834;28;20283;-64
2023/01/08 06:39:49;;;;;;;8.50;4.13;;;;;;;;;;5043390;28;20212;-64
2023/01/08 06:42:17;;;;;;;0.30;0.30;;;;;;;;;;5048731;28;20469;-66
2023/01/08 06:44:43;;;;;;;0.10;0.10;;;;;;;;;;5046408;28;20258;-65
2023/01/08 06:47:09;;;;;;;0.17;0.17;;;;;;;;;;5052782;28;20507;-66
2023/01/08 06:49:36;;;;;;;0.10;0.10;;;;;;;;;;5047564;28;20450;-65
2023/01/08 06:52:02;;;;;;;0.10;0.10;;;;;;;;;;5051906;28;20307;-65
2023/01/08 06:54:28;;;;;;;0.10;0.10;;;;;;;;;;5048061;28;20205;-63
2023/01/08 06:56:55;;;;;;;0.40;0.40;;;;;;;;;;5050790;28;20248;-64
2023/01/08 06:59:22;;;;;;;0.17;0.17;;;;;;;;;;5048557;28;20274;-64
2023/01/08 07:01:49;;;;;;;0.20;0.20;;;;;;;;;;5049602;28;20245;-65
2023/01/08 07:04:16;;;;;;;0.10;0.10;;;;;;;;;;5050099;28;20673;-64
2023/01/08 07:06:42;;;;;;;0.10;0.10;;;;;;;;;;5048921;28;20253;-65
2023/01/08 07:09:09;;;;;;;0.10;0.10;;;;;;;;;;5050279;28;20207;-65
2023/01/08 07:11:35;;;;;;;0.10;0.10;;;;;;;;;;5048116;28;20309;-65
2023/01/08 07:14:02;;;;;;;0.10;0.10;;;;;;;;;;5050781;28;20245;-65
2023/01/08 07:16:29;;;;;;;0.17;0.17;;;;;;;;;;5047058;28;20251;-65
2023/01/08 07:18:56;;;;;;;0.20;0.20;;;;;;;;;;5051785;28;20560;-64
2023/01/08 07:21:22;;;;;;;0.20;0.20;;;;;;;;;;5046204;28;20581;-65
2023/01/08 07:23:49;;;;;;;0.20;0.20;;;;;;;;;;5052575;28;20250;-64
2023/01/08 07:26:15;;;;;;;0.10;0.10;;;;;;;;;;5045231;28;20246;-64
2023/01/08 07:28:42;;;;;;;0.10;0.10;;;;;;;;;;5053117;28;20275;-64
2023/01/08 07:31:09;;;;;;;0.10;0.10;;;;;;;;;;5043897;28;20565;-65
2023/01/08 07:33:36;;;;;;;0.10;0.10;;;;;;;;;;5054361;28;20247;-65
2023/01/08 07:36:03;;;;;;;0.10;0.10;;;;;;;;;;5043245;28;20239;-66
2023/01/08 07:38:29;;;;;;;0.33;0.33;;;;;;;;;;5054909;28;20254;-65
2023/01/08 07:40:57;;;;;;;0.10;0.10;;;;;;;;;;5042418;28;20240;-64
2023/01/08 07:43:24;;;;;;;0.10;0.10;;;;;;;;;;5055444;28;20360;-64
2023/01/08 07:45:50;;;;;;;0.10;0.10;;;;;;;;;;5041604;28;20454;-63
2023/01/08 07:48:16;;;;;;;0.10;0.10;;;;;;;;;;5056230;28;20201;-64
2023/01/08 07:50:44;;;;;;;0.10;0.10;;;;;;;;;;5040320;28;20246;-64
2023/01/08 07:53:11;;;;;;;0.10;0.10;;;;;;;;;;5057053;28;20208;-64
2023/01/08 07:55:38;;;;;;;0.10;0.10;;;;;;;;;;5039355;28;20265;-64
2023/01/08 07:58:08;;;;;;;0.10;0.10;;;;;;;;;;5057656;28;20236;-64
2023/01/08 08:00:35;;;;;;;0.20;0.20;;;;;;;;;;5038700;28;20240;-65
2023/01/08 08:03:02;;;;;;;0.10;0.10;;;;;;;;;;5058679;28;20452;-64
2023/01/08 08:05:28;;;;;;;0.10;0.10;;;;;;;;;;5038466;28;20253;-64
2023/01/08 08:07:56;;;;;;;0.10;0.10;;;;;;;;;;5058720;28;20228;-64
2023/01/08 08:10:22;;;;;;;0.10;0.10;;;;;;;;;;5037787;28;20249;-64
2023/01/08 08:12:49;;;;;;;0.10;0.10;;;;;;;;;;5059336;28;20239;-65
2023/01/08 08:15:15;;;;;;;0.10;0.10;;;;;;;;;;5036604;28;20234;-65
2023/01/08 08:17:44;;;;;;;0.10;0.10;;;;;;;;;;5060137;28;20242;-64
2023/01/08 08:20:11;;;;;;;0.10;0.10;;;;;;;;;;5036089;28;20292;-64
2023/01/08 08:22:37;;;;;;;0.10;0.10;;;;;;;;;;5060435;28;20225;-65
2023/01/08 08:25:05;;;;;;;0.10;0.10;;;;;;;;;;5045505;28;20298;-65
2023/01/08 08:27:32;;;;;;;0.20;0.20;;;;;;;;;;5034538;28;20213;-66
2023/01/08 08:29:58;;;;;;;0.10;0.10;;;;;;;;;;5045479;28;20261;-65
2023/01/08 08:32:24;;;;;;;0.20;0.20;;;;;;;;;;5050979;28;20316;-66
2023/01/08 08:34:51;;;;;;;0.20;0.20;;;;;;;;;;5045497;28;20511;-66
2023/01/08 08:37:17;;;;;;;0.20;0.20;;;;;;;;;;5050916;28;20243;-67
2023/01/08 08:39:43;;;;;;;0.10;0.10;;;;;;;;;;5045341;28;20205;-65
2023/01/08 08:42:11;;;;;;;0.20;0.20;;;;;;;;;;5050658;28;20252;-64
2023/01/08 08:44:37;;;;;;;0.10;0.10;;;;;;;;;;5045362;28;20355;-64
2023/01/08 08:47:06;;;;;;;0.10;0.10;;;;;;;;;;5049896;28;20259;-64
2023/01/08 08:49:32;;;;;;;0.13;0.13;;;;;;;;;;5045263;28;20208;-64
2023/01/08 08:51:59;;;;;;;0.10;0.10;;;;;;;;;;5049425;28;20439;-64
2023/01/08 08:54:25;;;;;;;2.63;1.13;;;;;;;;;;5046321;28;20268;-64
2023/01/08 08:56:51;;;;;;;0.10;0.10;;;;;;;;;;5048151;28;20315;-64
2023/01/08 08:59:19;;;;;;;0.10;0.10;;;;;;;;;;5046849;28;20278;-63
2023/01/08 09:01:45;;;;;;;0.20;0.20;;;;;;;;;;5047039;28;20247;-63
2023/01/08 09:04:12;;;;;;;0.13;0.13;;;;;;;;;;5048093;28;20430;-64
2023/01/08 09:06:38;;;;;;;0.10;0.10;;;;;;;;;;5045477;28;20475;-63
2023/01/08 09:09:05;;;;;;;0.20;0.20;;;;;;;;;;5048627;28;20209;-63
2023/01/08 09:11:31;;;;;;;0.10;0.10;;;;;;;;;;5045339;28;20239;-64
2023/01/08 09:13:57;;;;;;;0.10;0.10;;;;;;;;;;5049386;28;20402;-66
2023/01/08 09:16:25;;;;;;;0.10;0.10;;;;;;;;;;5044119;28;20322;-65
2023/01/08 09:18:51;;;;;;;0.10;0.10;;;;;;;;;;5049966;28;20274;-66
2023/01/08 09:21:18;;;;;;;0.10;0.10;;;;;;;;;;5043224;28;20266;-66
2023/01/08 09:23:46;;;;;;;0.10;0.10;;;;;;;;;;5050817;28;20233;-65
2023/01/08 09:26:12;;;;;;;0.10;0.10;;;;;;;;;;5042492;28;20242;-66
2023/01/08 09:28:40;;;;;;;0.20;0.20;;;;;;;;;;5051480;28;20236;-65
2023/01/08 09:31:06;;;;;;;0.10;0.10;;;;;;;;;;5041659;28;20453;-65
2023/01/08 09:33:34;;;;;;;0.10;0.10;;;;;;;;;;5052490;28;20211;-66
2023/01/08 09:36:00;;;;;;;0.10;0.10;;;;;;;;;;5040841;28;20248;-66
2023/01/08 09:38:27;;;;;;;0.93;0.87;;;;;;;;;;5053059;28;20211;-65
2023/01/08 09:40:55;;;;;;;4.73;2.67;;;;;;;;;;5039886;28;20300;-65
2023/01/08 09:43:23;;;;;;;0.10;0.10;;;;;;;;;;5053483;28;20211;-65
2023/01/08 09:45:50;;;;;;;0.10;0.10;;;;;;;;;;5038961;28;20320;-65
2023/01/08 09:48:18;;;;;;;0.10;0.10;;;;;;;;;;5054407;28;20473;-65
2023/01/08 09:50:46;;;;;;;0.33;0.33;;;;;;;;;;5038440;28;20251;-65
2023/01/08 09:53:14;;;;;;;0.10;0.10;;;;;;;;;;5054701;28;20287;-66
2023/01/08 09:55:41;;;;;;;0.20;0.20;;;;;;;;;;5038246;28;20239;-66
2023/01/08 09:58:10;;;;;;;0.13;0.13;;;;;;;;;;5055195;28;20248;-66
2023/01/08 10:00:36;;;;;;;0.20;0.20;;;;;;;;;;5037335;28;20256;-66
2023/01/08 10:03:03;;;;;;;0.10;0.10;;;;;;;;;;5055871;28;20277;-66
2023/01/08 10:05:30;;;;;;;0.20;0.20;;;;;;;;;;5036657;28;20245;-66
2023/01/08 10:07:58;;;;;;;0.20;0.20;;;;;;;;;;5056470;28;20234;-65
2023/01/08 10:10:26;;;;;;;0.10;0.10;;;;;;;;;;5035988;28;20245;-64
2023/01/08 10:12:53;;;;;;;0.73;0.73;;;;;;;;;;5057196;28;20282;-64
2023/01/08 10:15:20;;;;;;;0.10;0.10;;;;;;;;;;5035317;28;20226;-65
2023/01/08 10:17:50;;;;;;;0.10;0.10;;;;;;;;;;5057350;28;20451;-65
2023/01/08 10:20:18;;;;;;;0.10;0.10;;;;;;;;;;5034818;28;20211;-66
2023/01/08 10:22:46;;;;;;;0.13;0.13;;;;;;;;;;5057495;28;20219;-66
2023/01/08 10:25:15;;;;;;;0.37;0.37;;;;;;;;;;5033857;28;20227;-66
2023/01/08 10:27:46;;;;;;;0.20;0.20;;;;;;;;;;5058233;28;20279;-66
2023/01/08 10:30:15;;;;;;;0.10;0.10;;;;;;;;;;5033800;28;20292;-66
2023/01/08 10:32:46;;;;;;;0.57;0.57;;;;;;;;;;5058016;28;20212;-66
2023/01/08 10:35:15;;;;;;;0.10;0.10;;;;;;;;;;5034202;28;20265;-66
2023/01/08 10:37:42;;;;;;;0.40;0.40;;;;;;;;;;5057980;28;20213;-65
2023/01/08 10:40:20;;;;;;;2.63;1.33;;;;;;;;;;5034727;28;20205;-65
2023/01/08 10:42:47;;;;;;;6.90;6.53;;;;;;;;;;5043913;28;20236;-65
2023/01/08 10:45:17;;;;;;;0.17;0.17;;;;;;;;;;5034077;28;20474;-65
2023/01/08 10:47:46;;;;;;;0.20;0.20;;;;;;;;;;5057668;28;20273;-66
2023/01/08 10:50:15;;;;;;;0.40;0.40;;;;;;;;;;5033736;28;20212;-66
2023/01/08 10:52:51;;;;;;;0.20;0.20;;;;;;;;;;5057872;28;20383;-66
2023/01/08 10:55:21;;;;;;;0.17;0.17;;;;;;;;;;5034692;28;20265;-65
2023/01/08 10:57:53;;;;;;;0.73;0.73;;;;;;;;;;5057128;28;20236;-65
2023/01/08 11:00:23;;;;;;;2.93;2.73;;;;;;;;;;5034506;28;20196;-66
2023/01/08 11:02:50;;;;;;;0.10;0.10;;;;;;;;;;5056950;28;20209;-66
2023/01/08 11:05:16;;;;;;;0.23;0.23;;;;;;;;;;5034306;28;20278;-67
2023/01/08 11:07:43;;;;;;;0.10;0.10;;;;;;;;;;5057694;28;20214;-65
2023/01/08 11:10:21;;;;;;;0.20;0.20;;;;;;;;;;5033476;28;20278;-65
2023/01/08 11:12:54;;;;;;;0.20;0.20;;;;;;;;;;5056903;28;20279;-66
2023/01/08 11:15:30;;;;;;;0.10;0.10;;;;;;;;;;5034765;28;20227;-66
2023/01/08 11:18:04;;;;;;;0.10;0.10;;;;;;;;;;5055429;28;20282;-65
2023/01/08 11:20:30;;;;;;;0.20;0.20;;;;;;;;;;5035650;28;20317;-64
2023/01/08 11:23:04;;;;;;;0.20;0.20;;;;;;;;;;5055193;28;20596;-65
2023/01/08 11:25:31;;;;;;;0.10;0.10;;;;;;;;;;5035485;28;20240;-65
2023/01/08 11:27:59;;;;;;;0.10;0.10;;;;;;;;;;5055219;28;20223;-65
2023/01/08 11:30:31;;;;;;;0.67;0.67;;;;;;;;;;5036966;28;20455;-66
2023/01/08 11:33:00;;;;;;;0.20;0.20;;;;;;;;;;5059195;28;20273;-65
2023/01/08 11:35:28;;;;;;;4.67;0.73;;;;;;;;;;5038880;28;20216;-66
2023/01/08 11:37:58;;;;;;;0.13;0.13;;;;;;;;;;5059242;28;20233;-66
2023/01/08 11:40:28;;;;;;;0.77;0.77;;;;;;;;;;5038444;28;20206;-66
2023/01/08 11:43:04;;;;;;;0.20;0.20;;;;;;;;;;5058925;28;20320;-66
2023/01/08 11:45:33;;;;;;;0.10;0.10;;;;;;;;;;5039285;28;20278;-65
2023/01/08 11:48:10;;;;;;;0.10;0.10;;;;;;;;;;5058474;28;20460;-66
2023/01/08 11:50:40;;;;;;;0.20;0.20;;;;;;;;;;5039941;28;20608;-65
2023/01/08 11:53:14;;;;;;;0.10;0.10;;;;;;;;;;5057423;28;20210;-66
2023/01/08 11:55:49;;;;;;;0.20;0.20;;;;;;;;;;5040288;28;20258;-65
2023/01/08 11:58:23;;;;;;;0.10;0.10;;;;;;;;;;5056274;28;20271;-65
2023/01/08 12:01:04;;;;;;;0.50;0.50;;;;;;;;;;5040953;28;20251;-65
2023/01/08 12:03:33;;;;;;;0.30;0.30;;;;;;;;;;5051377;28;20212;-65
2023/01/08 12:06:04;;;;;;;0.10;0.10;;;;;;;;;;5042676;28;20308;-65
2023/01/08 12:08:35;;;;;;;0.10;0.10;;;;;;;;;;5053956;28;20200;-66
2023/01/08 12:11:07;;;;;;;0.30;0.30;;;;;;;;;;5042680;28;20267;-64
2023/01/08 12:13:42;;;;;;;0.20;0.20;;;;;;;;;;5053615;28;20224;-65
2023/01/08 12:16:15;;;;;;;0.17;0.17;;;;;;;;;;5043618;28;20477;-65
2023/01/08 12:18:54;;;;;;;0.10;0.10;;;;;;;;;;5052569;28;20193;-66
2023/01/08 12:21:25;;;;;;;0.17;0.17;;;;;;;;;;5044890;28;20325;-66
2023/01/08 12:24:05;;;;;;;0.10;0.10;;;;;;;;;;5051149;28;20194;-66
2023/01/08 12:26:34;;;;;;;0.10;0.10;;;;;;;;;;5046133;28;20294;-67
2023/01/08 12:29:11;;;;;;;0.10;0.10;;;;;;;;;;5049793;28;20279;-66
2023/01/08 12:31:50;;;;;;;0.10;0.10;;;;;;;;;;5046907;28;20313;-64
2023/01/08 12:34:19;;;;;;;0.23;0.23;;;;;;;;;;5047433;28;20235;-65
2023/01/08 12:36:46;;;;;;;0.10;0.10;;;;;;;;;;5047816;28;20556;-65
2023/01/08 12:39:15;;;;;;;0.13;0.13;;;;;;;;;;5047832;28;20234;-64
2023/01/08 12:41:43;;;;;;;0.10;0.10;;;;;;;;;;5047191;28;20240;-64
2023/01/08 12:44:11;;;;;;;0.10;0.10;;;;;;;;;;5048079;28;20235;-65
2023/01/08 12:46:39;;;;;;;0.10;0.10;;;;;;;;;;5046526;28;20385;-65
2023/01/08 12:49:06;;;;;;;0.10;0.10;;;;;;;;;;5048468;28;20238;-66
2023/01/08 12:51:34;;;;;;;0.10;0.10;;;;;;;;;;5045767;28;20305;-66
2023/01/08 12:54:04;;;;;;;0.10;0.10;;;;;;;;;;5049115;28;20272;-66
2023/01/08 12:56:34;;;;;;;0.10;0.10;;;;;;;;;;5045521;28;20306;-66
2023/01/08 12:59:06;;;;;;;0.10;0.10;;;;;;;;;;5049013;28;20272;-65
2023/01/08 13:01:37;;;;;;;0.10;0.10;;;;;;;;;;5045697;28;20258;-65
2023/01/08 13:04:05;;;;;;;0.10;0.10;;;;;;;;;;5048771;28;20259;-66
2023/01/08 13:06:31;;;;;;;0.10;0.10;;;;;;;;;;5045237;28;20294;-66
2023/01/08 13:08:58;;;;;;;0.10;0.10;;;;;;;;;;5049195;28;20207;-66
2023/01/08 13:11:26;;;;;;;0.10;0.10;;;;;;;;;;5044570;28;20286;-65
2023/01/08 13:13:58;;;;;;;0.10;0.10;;;;;;;;;;5049753;28;20210;-65
2023/01/08 13:16:25;;;;;;;0.53;0.53;;;;;;;;;;5044394;28;20238;-64
2023/01/08 13:18:57;;;;;;;0.20;0.20;;;;;;;;;;5050116;28;20242;-65
2023/01/08 13:21:33;;;;;;;0.10;0.10;;;;;;;;;;5043897;28;20318;-65
2023/01/08 13:24:01;;;;;;;0.10;0.10;;;;;;;;;;5049051;28;20467;-65
2023/01/08 13:26:28;;;;;;;0.10;0.10;;;;;;;;;;5044440;28;20276;-66
2023/01/08 13:29:05;;;;;;;0.10;0.10;;;;;;;;;;5049522;28;20403;-65
2023/01/08 13:31:38;;;;;;;0.17;0.17;;;;;;;;;;5044915;28;20516;-66
2023/01/08 13:34:18;;;;;;;0.13;0.13;;;;;;;;;;5048258;28;20439;-66
2023/01/08 13:36:54;;;;;;;0.10;0.10;;;;;;;;;;5046557;28;20235;-65
2023/01/08 13:39:22;;;;;;;0.13;0.13;;;;;;;;;;5046009;28;20227;-65
2023/01/08 13:41:57;;;;;;;0.10;0.10;;;;;;;;;;5047117;28;20240;-66
2023/01/08 13:44:26;;;;;;;0.10;0.10;;;;;;;;;;5045610;28;20262;-65
2023/01/08 13:46:53;;;;;;;0.10;0.10;;;;;;;;;;5047319;28;20446;-66
2023/01/08 13:49:25;;;;;;;0.10;0.10;;;;;;;;;;5045885;28;20242;-66
2023/01/08 13:51:52;;;;;;;0.10;0.10;;;;;;;;;;5047114;28;20361;-66
2023/01/08 13:54:24;;;;;;;0.10;0.10;;;;;;;;;;5045879;28;20462;-66
2023/01/08 13:56:52;;;;;;;0.30;0.30;;;;;;;;;;5047124;28;20435;-65
2023/01/08 13:59:24;;;;;;;0.10;0.10;;;;;;;;;;5046007;28;20507;-65
2023/01/08 14:01:53;;;;;;;0.10;0.10;;;;;;;;;;5046947;28;20246;-65
2023/01/08 14:04:21;;;;;;;0.57;0.57;;;;;;;;;;5045550;28;20280;-65
2023/01/08 14:06:48;;;;;;;0.47;0.47;;;;;;;;;;5046547;28;20240;-64
2023/01/08 14:09:20;;;;;;;0.10;0.10;;;;;;;;;;5046053;28;20282;-65
2023/01/08 14:11:47;;;;;;;0.10;0.10;;;;;;;;;;5046395;28;20503;-65
2023/01/08 14:14:14;;;;;;;0.10;0.10;;;;;;;;;;5046389;28;20236;-65
2023/01/08 14:16:41;;;;;;;0.10;0.10;;;;;;;;;;5045547;28;20247;-65
2023/01/08 14:19:08;;;;;;;0.10;0.10;;;;;;;;;;5047154;28;20276;-65
2023/01/08 14:21:35;;;;;;;0.10;0.10;;;;;;;;;;5044588;28;20310;-67
2023/01/08 14:24:02;;;;;;;0.10;0.10;;;;;;;;;;5047662;28;20262;-65
2023/01/08 14:26:31;;;;;;;0.10;0.10;;;;;;;;;;5043669;28;20252;-65
2023/01/08 14:28:57;;;;;;;0.10;0.10;;;;;;;;;;5048503;28;20237;-68
2023/01/08 14:31:25;;;;;;;0.10;0.10;;;;;;;;;;5042544;28;20593;-65
2023/01/08 14:33:52;;;;;;;0.10;0.10;;;;;;;;;;5049250;28;20214;-66
2023/01/08 14:36:18;;;;;;;0.43;0.43;;;;;;;;;;5042288;28;20259;-65
2023/01/08 14:38:49;;;;;;;0.23;0.23;;;;;;;;;;5049956;28;20236;-64
2023/01/08 14:41:17;;;;;;;0.10;0.10;;;;;;;;;;5041872;28;20249;-69
2023/01/08 14:43:45;;;;;;;0.20;0.20;;;;;;;;;;5050041;28;20280;-68
2023/01/08 14:46:14;;;;;;;0.10;0.10;;;;;;;;;;5041339;28;20586;-68
2023/01/08 14:48:42;;;;;;;0.10;0.10;;;;;;;;;;5050276;28;20205;-65